Etusivu
METAR-TAF:

METAR-TAF

Lentoasemat :

Utti, Suomi

Utin lentoasema

Leveyspiiri: 60-54N, Pituuspiiri: 026-56E, korkeus merenpinnasta: 100 m

Tämänhetkinen sää

Tämä raportti tehtiin 34 minuuttia sitten, kello 23.50 UTC
Tuuli 9 kn idästä
Lämpötila 0°C
Kosteus 100%
Ilmanpaine 1000 hPa
Näkyvyys: 9000 m
Pilvistä 300 ft:n korkeudessa
heikkoa sadetta, lumisadetta

METAR: EFUT 192350Z AUTO 08009KT 9000 -RASN OVC003 00/M00 Q1000

Aika: 02:24 (00:24 UTC)


TAF: puuttuu

Säähavainnot ja -ennusteet yli 4000 lentoasemalta (METAR- ja TAF-raportit).

Käytössä olevat sääasemat on merkitty karttaan keltaisilla ja punaisilla pisteillä.

Aseta hiiri pisteen päälle nähdäksesi sääaseman nimen.

Klikkaa sitten nähdäksesi säähavainnot ja -ennusteet.

Kartan vaihtaminen: klikkaa mustalla rastilla varustettuja vihreitä pisteitä, niin voit zoomata sisään; viivalla varustettua vihreää pistettä, niin voit zoomata ulos tai vihreitä nuolia, niin pääset viereisille kartoille.


METAR-TAF: